RYR4PJ EPKK-LKPR
Flight info
| Callsign | RYR4PJ |
|---|---|
| Flight time | 0h 40m |
| Altitude | 32000 |
| Route | TUSIN5J TUSIN DCT LABUK DCT TUMKA DCT VLM VLM5R |
| Aircraft | B38M/M-SDE1FGHILORVWXY/HB1 |
Departure
| Time | 2026-05-06 16:14 |
|---|---|
| Airport | Kraków John Paul II International Airport (EPKK) |
Arrival
| Time | 2026-05-06 16:54 |
|---|---|
| Airport | Václav Havel Airport Prague (LKPR) |
| Time | Latitude | Longitude | Altitude | Speed | Heading |
|---|---|---|---|---|---|
| 2026-05-06 15:37 | 50.07338 | 19.80103 | 802 ft | 0 kts | 167° |
| 2026-05-06 15:48 | 50.07337 | 19.80207 | 802 ft | 0 kts | 168° |
| 2026-05-06 16:05 | 50.07341 | 19.80206 | 802 ft | 2 kts | 168° |
| 2026-05-06 16:05 | 50.07358 | 19.80199 | 802 ft | 3 kts | 164° |
| 2026-05-06 16:06 | 50.07377 | 19.80190 | 802 ft | 3 kts | 158° |
| 2026-05-06 16:06 | 50.07395 | 19.80177 | 802 ft | 3 kts | 148° |
| 2026-05-06 16:06 | 50.07409 | 19.80158 | 802 ft | 3 kts | 123° |
| 2026-05-06 16:06 | 50.07414 | 19.80137 | 802 ft | 2 kts | 81° |
| 2026-05-06 16:07 | 50.07414 | 19.80133 | 802 ft | 1 kts | 77° |
| 2026-05-06 16:09 | 50.07414 | 19.80134 | 802 ft | 1 kts | 77° |
| 2026-05-06 16:10 | 50.07419 | 19.80168 | 802 ft | 9 kts | 77° |
| 2026-05-06 16:10 | 50.07447 | 19.80342 | 802 ft | 22 kts | 58° |
| 2026-05-06 16:10 | 50.07614 | 19.80413 | 802 ft | 30 kts | 346° |
| 2026-05-06 16:10 | 50.07813 | 19.80346 | 802 ft | 22 kts | 347° |
| 2026-05-06 16:11 | 50.07837 | 19.80338 | 803 ft | 0 kts | 347° |
| 2026-05-06 16:12 | 50.07863 | 19.80329 | 803 ft | 9 kts | 347° |
| 2026-05-06 16:12 | 50.07963 | 19.80297 | 802 ft | 21 kts | 346° |
| 2026-05-06 16:13 | 50.07998 | 19.80096 | 803 ft | 24 kts | 257° |
| 2026-05-06 16:13 | 50.07985 | 19.80006 | 803 ft | 1 kts | 257° |
| 2026-05-06 16:13 | 50.07981 | 19.79978 | 803 ft | 5 kts | 257° |
| 2026-05-06 16:13 | 50.07963 | 19.79855 | 802 ft | 37 kts | 257° |
| 2026-05-06 16:14 | 50.07844 | 19.78998 | 804 ft | 124 kts | 258° |
| 2026-05-06 16:14 | 50.07622 | 19.77352 | 875 ft | 172 kts | 262° |
| 2026-05-06 16:14 | 50.07369 | 19.75327 | 1403 ft | 203 kts | 259° |
| 2026-05-06 16:14 | 50.07085 | 19.73066 | 2330 ft | 225 kts | 258° |
| 2026-05-06 16:15 | 50.06715 | 19.70590 | 3204 ft | 242 kts | 257° |
| 2026-05-06 16:15 | 50.06326 | 19.67967 | 4203 ft | 254 kts | 257° |
| 2026-05-06 16:15 | 50.05929 | 19.65250 | 5257 ft | 262 kts | 257° |
| 2026-05-06 16:15 | 50.05529 | 19.62456 | 6344 ft | 267 kts | 257° |
| 2026-05-06 16:16 | 50.05126 | 19.59614 | 7450 ft | 271 kts | 257° |
| 2026-05-06 16:16 | 50.04705 | 19.56646 | 8110 ft | 293 kts | 257° |
| 2026-05-06 16:16 | 50.04252 | 19.53444 | 8155 ft | 310 kts | 257° |
| 2026-05-06 16:16 | 50.03774 | 19.50077 | 8556 ft | 327 kts | 257° |
| 2026-05-06 16:17 | 50.03277 | 19.46578 | 9054 ft | 335 kts | 257° |
| 2026-05-06 16:17 | 50.02775 | 19.43006 | 9553 ft | 341 kts | 259° |
| 2026-05-06 16:17 | 50.02761 | 19.39404 | 10024 ft | 343 kts | 279° |
| 2026-05-06 16:17 | 50.03146 | 19.35722 | 10536 ft | 346 kts | 278° |
| 2026-05-06 16:18 | 50.03514 | 19.32007 | 11033 ft | 349 kts | 278° |
| 2026-05-06 16:18 | 50.03888 | 19.28256 | 11531 ft | 352 kts | 278° |
| 2026-05-06 16:18 | 50.04264 | 19.24479 | 12029 ft | 354 kts | 278° |
| 2026-05-06 16:18 | 50.04643 | 19.20679 | 12528 ft | 357 kts | 278° |
| 2026-05-06 16:19 | 50.05023 | 19.16846 | 13023 ft | 359 kts | 278° |
| 2026-05-06 16:19 | 50.05405 | 19.12987 | 13527 ft | 362 kts | 278° |
| 2026-05-06 16:19 | 50.05788 | 19.09104 | 14023 ft | 365 kts | 278° |
| 2026-05-06 16:19 | 50.06173 | 19.05178 | 14521 ft | 368 kts | 278° |
| 2026-05-06 16:20 | 50.06558 | 19.01250 | 15016 ft | 370 kts | 278° |
| 2026-05-06 16:20 | 50.06945 | 18.97271 | 15513 ft | 373 kts | 278° |
| 2026-05-06 16:20 | 50.07335 | 18.93257 | 16012 ft | 376 kts | 278° |
| 2026-05-06 16:20 | 50.07722 | 18.89263 | 16504 ft | 378 kts | 278° |
| 2026-05-06 16:21 | 50.08052 | 18.85179 | 16991 ft | 381 kts | 271° |
| 2026-05-06 16:21 | 50.07706 | 18.81102 | 17487 ft | 383 kts | 252° |
| 2026-05-06 16:21 | 50.06526 | 18.77377 | 17986 ft | 386 kts | 234° |
| 2026-05-06 16:21 | 50.04651 | 18.74393 | 18489 ft | 389 kts | 216° |
| 2026-05-06 16:22 | 50.02266 | 18.72348 | 18999 ft | 393 kts | 206° |
| 2026-05-06 16:22 | 49.99811 | 18.70400 | 19496 ft | 397 kts | 210° |
| 2026-05-06 16:22 | 49.97403 | 18.68260 | 19994 ft | 400 kts | 210° |
| 2026-05-06 16:22 | 49.94982 | 18.66128 | 20488 ft | 403 kts | 210° |
| 2026-05-06 16:23 | 49.92531 | 18.63986 | 20988 ft | 406 kts | 209° |
| 2026-05-06 16:23 | 49.90084 | 18.61873 | 21481 ft | 409 kts | 209° |
| 2026-05-06 16:23 | 49.87585 | 18.59715 | 21985 ft | 412 kts | 210° |
| 2026-05-06 16:23 | 49.85304 | 18.57000 | 22456 ft | 414 kts | 227° |
| 2026-05-06 16:24 | 49.83676 | 18.53333 | 22971 ft | 416 kts | 244° |
| 2026-05-06 16:24 | 49.82444 | 18.49261 | 23475 ft | 419 kts | 245° |
| 2026-05-06 16:24 | 49.81207 | 18.45162 | 23971 ft | 422 kts | 245° |
| 2026-05-06 16:24 | 49.79974 | 18.41026 | 24467 ft | 425 kts | 245° |
| 2026-05-06 16:25 | 49.78740 | 18.36866 | 24962 ft | 427 kts | 245° |
| 2026-05-06 16:25 | 49.77501 | 18.32685 | 25460 ft | 429 kts | 245° |
| 2026-05-06 16:25 | 49.76254 | 18.28478 | 25955 ft | 431 kts | 245° |
| 2026-05-06 16:25 | 49.75002 | 18.24262 | 26452 ft | 432 kts | 245° |
| 2026-05-06 16:26 | 49.73745 | 18.20039 | 26945 ft | 433 kts | 245° |
| 2026-05-06 16:26 | 49.72490 | 18.15827 | 27439 ft | 433 kts | 245° |
| 2026-05-06 16:26 | 49.71243 | 18.11647 | 27936 ft | 433 kts | 245° |
| 2026-05-06 16:26 | 49.69995 | 18.07475 | 28419 ft | 433 kts | 245° |
| 2026-05-06 16:27 | 49.68928 | 18.03913 | 28834 ft | 433 kts | 245° |
| 2026-05-06 16:27 | 49.67661 | 17.99689 | 29348 ft | 432 kts | 245° |
| 2026-05-06 16:27 | 49.66398 | 17.95484 | 29831 ft | 431 kts | 245° |
| 2026-05-06 16:27 | 49.65153 | 17.91350 | 30324 ft | 429 kts | 245° |
| 2026-05-06 16:28 | 49.63893 | 17.87169 | 30819 ft | 427 kts | 245° |
| 2026-05-06 16:28 | 49.62640 | 17.83021 | 31301 ft | 425 kts | 245° |
| 2026-05-06 16:28 | 49.61812 | 17.80282 | 31629 ft | 424 kts | 245° |
| 2026-05-06 16:28 | 49.60564 | 17.76162 | 31971 ft | 426 kts | 245° |
| 2026-05-06 16:29 | 49.58019 | 17.67783 | 31985 ft | 441 kts | 245° |
| 2026-05-06 16:29 | 49.55366 | 17.59073 | 32000 ft | 455 kts | 245° |
| 2026-05-06 16:30 | 49.53105 | 17.51675 | 31999 ft | 462 kts | 245° |
| 2026-05-06 16:30 | 49.50058 | 17.41119 | 31978 ft | 461 kts | 256° |
| 2026-05-06 16:31 | 49.49347 | 17.31414 | 31986 ft | 461 kts | 264° |
| 2026-05-06 16:31 | 49.48757 | 17.21585 | 32001 ft | 461 kts | 265° |
| 2026-05-06 16:32 | 49.48188 | 17.11768 | 32000 ft | 461 kts | 265° |
| 2026-05-06 16:32 | 49.47612 | 17.01934 | 32000 ft | 461 kts | 265° |
| 2026-05-06 16:33 | 49.47030 | 16.92125 | 31999 ft | 462 kts | 265° |
| 2026-05-06 16:34 | 49.46139 | 16.77382 | 32001 ft | 464 kts | 264° |
| 2026-05-06 16:34 | 49.45532 | 16.67511 | 31975 ft | 459 kts | 264° |
| 2026-05-06 16:34 | 49.45232 | 16.62685 | 31623 ft | 449 kts | 264° |
| 2026-05-06 16:35 | 49.44936 | 16.57958 | 31266 ft | 441 kts | 264° |
| 2026-05-06 16:35 | 49.44643 | 16.53305 | 30700 ft | 438 kts | 264° |
| 2026-05-06 16:35 | 49.44347 | 16.48644 | 29999 ft | 439 kts | 264° |
| 2026-05-06 16:35 | 49.44048 | 16.43963 | 29238 ft | 441 kts | 264° |
| 2026-05-06 16:36 | 49.43745 | 16.39249 | 28482 ft | 443 kts | 264° |
| 2026-05-06 16:36 | 49.43441 | 16.34534 | 27727 ft | 444 kts | 264° |
| 2026-05-06 16:36 | 49.43137 | 16.29862 | 26972 ft | 445 kts | 264° |
| 2026-05-06 16:36 | 49.42826 | 16.25124 | 26137 ft | 447 kts | 264° |
| 2026-05-06 16:37 | 49.42513 | 16.20363 | 25308 ft | 448 kts | 264° |
| 2026-05-06 16:37 | 49.42198 | 16.15621 | 24579 ft | 447 kts | 264° |
| 2026-05-06 16:37 | 49.41883 | 16.10889 | 23994 ft | 442 kts | 264° |
| 2026-05-06 16:37 | 49.41569 | 16.06196 | 23368 ft | 438 kts | 264° |
| 2026-05-06 16:38 | 49.41256 | 16.01548 | 22771 ft | 434 kts | 264° |
| 2026-05-06 16:38 | 49.41027 | 15.96949 | 22171 ft | 430 kts | 272° |
| 2026-05-06 16:38 | 49.41595 | 15.92549 | 21947 ft | 421 kts | 292° |
| 2026-05-06 16:38 | 49.42928 | 15.88513 | 21992 ft | 427 kts | 297° |
| 2026-05-06 16:39 | 49.44309 | 15.84450 | 21978 ft | 429 kts | 297° |
| 2026-05-06 16:39 | 49.45693 | 15.80373 | 21992 ft | 429 kts | 297° |
| 2026-05-06 16:39 | 49.47068 | 15.76327 | 21995 ft | 428 kts | 297° |
| 2026-05-06 16:39 | 49.48433 | 15.72309 | 21350 ft | 424 kts | 297° |
| 2026-05-06 16:40 | 49.49801 | 15.68274 | 20731 ft | 422 kts | 297° |
| 2026-05-06 16:40 | 49.51131 | 15.64347 | 20195 ft | 417 kts | 297° |
| 2026-05-06 16:40 | 49.52471 | 15.60384 | 19627 ft | 414 kts | 297° |
| 2026-05-06 16:40 | 49.53797 | 15.56458 | 19040 ft | 411 kts | 297° |
| 2026-05-06 16:41 | 49.55107 | 15.52572 | 18519 ft | 407 kts | 297° |
| 2026-05-06 16:41 | 49.56404 | 15.48718 | 17965 ft | 404 kts | 297° |
| 2026-05-06 16:41 | 49.57688 | 15.44895 | 17438 ft | 401 kts | 297° |
| 2026-05-06 16:41 | 49.58966 | 15.41087 | 16881 ft | 398 kts | 297° |
| 2026-05-06 16:42 | 49.60216 | 15.37357 | 16385 ft | 394 kts | 297° |
| 2026-05-06 16:42 | 49.61469 | 15.33611 | 15851 ft | 392 kts | 297° |
| 2026-05-06 16:42 | 49.62708 | 15.29902 | 15222 ft | 384 kts | 297° |
| 2026-05-06 16:42 | 49.63930 | 15.26242 | 14188 ft | 383 kts | 297° |
| 2026-05-06 16:43 | 49.65083 | 15.22777 | 13320 ft | 378 kts | 297° |
| 2026-05-06 16:43 | 49.66279 | 15.19185 | 12417 ft | 373 kts | 297° |
| 2026-05-06 16:43 | 49.67455 | 15.15642 | 11532 ft | 368 kts | 297° |
| 2026-05-06 16:43 | 49.68616 | 15.12145 | 10638 ft | 363 kts | 297° |
| 2026-05-06 16:44 | 49.69755 | 15.08710 | 9771 ft | 359 kts | 297° |
| 2026-05-06 16:44 | 49.70992 | 15.05416 | 8924 ft | 353 kts | 307° |
| 2026-05-06 16:44 | 49.72505 | 15.02468 | 8048 ft | 349 kts | 308° |
| 2026-05-06 16:44 | 49.73975 | 14.99575 | 7226 ft | 344 kts | 308° |
| 2026-05-06 16:45 | 49.75439 | 14.96670 | 6369 ft | 340 kts | 307° |
| 2026-05-06 16:45 | 49.76882 | 14.93793 | 5535 ft | 336 kts | 307° |
| 2026-05-06 16:45 | 49.78305 | 14.90948 | 4688 ft | 332 kts | 307° |
| 2026-05-06 16:45 | 49.79708 | 14.88137 | 3898 ft | 329 kts | 307° |
| 2026-05-06 16:46 | 49.81107 | 14.85304 | 3658 ft | 332 kts | 307° |
| 2026-05-06 16:46 | 49.82507 | 14.82468 | 4578 ft | 330 kts | 307° |
| 2026-05-06 16:46 | 49.83903 | 14.79637 | 5362 ft | 333 kts | 307° |
| 2026-05-06 16:46 | 49.85227 | 14.76951 | 6235 ft | 296 kts | 307° |
| 2026-05-06 16:47 | 49.86402 | 14.74566 | 6661 ft | 255 kts | 307° |
| 2026-05-06 16:47 | 49.87404 | 14.72531 | 6762 ft | 230 kts | 307° |
| 2026-05-06 16:47 | 49.88350 | 14.70607 | 6719 ft | 222 kts | 307° |
| 2026-05-06 16:47 | 49.89280 | 14.68715 | 6682 ft | 221 kts | 307° |
| 2026-05-06 16:48 | 49.90223 | 14.66794 | 6602 ft | 229 kts | 307° |
| 2026-05-06 16:48 | 49.91225 | 14.64752 | 6512 ft | 246 kts | 307° |
| 2026-05-06 16:48 | 49.92278 | 14.62604 | 6493 ft | 253 kts | 307° |
| 2026-05-06 16:48 | 49.93310 | 14.60498 | 6497 ft | 243 kts | 307° |
| 2026-05-06 16:49 | 49.94304 | 14.58468 | 6442 ft | 231 kts | 307° |
| 2026-05-06 16:49 | 49.95284 | 14.56464 | 5869 ft | 238 kts | 307° |
| 2026-05-06 16:49 | 49.96306 | 14.54374 | 5216 ft | 246 kts | 307° |
| 2026-05-06 16:49 | 49.97342 | 14.52252 | 4630 ft | 250 kts | 307° |
| 2026-05-06 16:50 | 49.98388 | 14.50111 | 4294 ft | 242 kts | 307° |
| 2026-05-06 16:50 | 49.99361 | 14.48114 | 4239 ft | 223 kts | 307° |
| 2026-05-06 16:50 | 50.00252 | 14.46287 | 4242 ft | 202 kts | 307° |
| 2026-05-06 16:50 | 50.01075 | 14.44592 | 4084 ft | 195 kts | 307° |
| 2026-05-06 16:51 | 50.01876 | 14.42942 | 3827 ft | 190 kts | 307° |
| 2026-05-06 16:51 | 50.02666 | 14.41315 | 3555 ft | 183 kts | 307° |
| 2026-05-06 16:51 | 50.03404 | 14.39797 | 3261 ft | 168 kts | 307° |
| 2026-05-06 16:51 | 50.04081 | 14.38403 | 2998 ft | 157 kts | 306° |
| 2026-05-06 16:52 | 50.04736 | 14.37051 | 2751 ft | 156 kts | 307° |
| 2026-05-06 16:52 | 50.05387 | 14.35710 | 2502 ft | 155 kts | 307° |
| 2026-05-06 16:52 | 50.06032 | 14.34381 | 2308 ft | 151 kts | 306° |
| 2026-05-06 16:52 | 50.06648 | 14.33111 | 2099 ft | 144 kts | 306° |
| 2026-05-06 16:53 | 50.07247 | 14.31874 | 1956 ft | 143 kts | 306° |
| 2026-05-06 16:53 | 50.07835 | 14.30652 | 1803 ft | 140 kts | 306° |
| 2026-05-06 16:53 | 50.08472 | 14.29318 | 1611 ft | 158 kts | 306° |
| 2026-05-06 16:53 | 50.09121 | 14.28005 | 1273 ft | 146 kts | 306° |
| 2026-05-06 16:54 | 50.09674 | 14.26861 | 1214 ft | 119 kts | 307° |
| 2026-05-06 16:54 | 50.10045 | 14.26095 | 1190 ft | 69 kts | 307° |
| 2026-05-06 16:54 | 50.10274 | 14.25706 | 1188 ft | 34 kts | 329° |
| 2026-05-06 16:54 | 50.10420 | 14.25658 | 1186 ft | 0 kts | 0° |
| 2026-05-06 16:55 | 50.10427 | 14.25658 | 1186 ft | 2 kts | 4° |
| 2026-05-06 16:55 | 50.10475 | 14.25675 | 1186 ft | 13 kts | 17° |
| 2026-05-06 16:55 | 50.10596 | 14.25774 | 1185 ft | 26 kts | 35° |
| 2026-05-06 16:55 | 50.10772 | 14.25966 | 1178 ft | 29 kts | 34° |
| 2026-05-06 16:56 | 50.10882 | 14.26084 | 1175 ft | 2 kts | 35° |
| 2026-05-06 16:56 | 50.10911 | 14.26115 | 1171 ft | 7 kts | 35° |
| 2026-05-06 16:56 | 50.10946 | 14.26182 | 1169 ft | 5 kts | 105° |
| 2026-05-06 16:56 | 50.10912 | 14.26250 | 1174 ft | 12 kts | 123° |
| 2026-05-06 16:57 | 50.10909 | 14.26257 | 1173 ft | 0 kts | 125° |
| 2026-05-06 16:57 | 50.10910 | 14.26256 | 1172 ft | 0 kts | 125° |